Decoded Metar for GMFF (FEZ in MOROCCO) (IATA:FEZ) | Meteo·Mobile Aviation Weather
aviador You're here:

GMFF Decoded Metar

FEZ in MOROCCO
Report Time2018-09-25 14:30:00
UTC Time2018-09-25 14:51:22
Flight Rules vfr VFR
Wind360° at 08 kt
W.Decomp.*RWY 09: 0.1 kt HW 8 kt LCW
Visibility9999 m
Phenomena:N/A
Clouds:Scattered 030 Hf
Expected CloudBase > 10,800 ft AGL from Temp-Dew spread
CeilingNone
Temp35°C (ISA +24)
Dew Point08°C (19% RH)
Heat Index32.9°C
AAT31.6°C
QNH1019 hPa
Density Alt4,534 ft
Elevation1,900 ft
Report Wrong Elevation
Raw Report
GMFF 251430Z 36008KT 290V090 9999 SCT030 35/08 Q1019 NOSIG=

Extra information for GMFF:More info

Metar Taf Metar & Taf Last 4 Metars F.Rules Stats Wind Profile Meteogram Temp Stats Airport Information Weather charts Add Link Nearby VenuesMetar ALERT Operation Metar Decoded Social comments